createdAt,value
2018-03-26T00:01:35.573Z,40.87
2018-03-26T00:04:03.082Z,41.20
2018-03-26T00:06:30.560Z,42.83
2018-03-26T00:08:58.041Z,44.13
2018-03-26T00:11:25.535Z,42.77
2018-03-26T00:13:53.783Z,44.13
2018-03-26T00:16:21.237Z,46.67
2018-03-26T00:18:48.735Z,46.33
2018-03-26T00:21:16.225Z,46.37
2018-03-26T00:23:43.731Z,47.93
2018-03-26T00:26:11.986Z,51.73
2018-03-26T00:28:39.477Z,50.30
2018-03-26T00:31:06.955Z,45.93
2018-03-26T00:33:34.436Z,48.03
2018-03-26T00:36:01.918Z,52.70
2018-03-26T00:38:29.390Z,52.80
2018-03-26T00:40:57.628Z,48.10
2018-03-26T00:43:25.133Z,54.00
2018-03-26T00:45:52.652Z,53.80
2018-03-26T00:48:20.177Z,53.43
2018-03-26T00:50:47.656Z,55.13
2018-03-26T00:53:26.867Z,53.10
2018-03-26T00:55:54.351Z,56.10
2018-03-26T00:58:21.815Z,54.30
2018-03-26T01:00:50.060Z,52.33
2018-03-26T01:03:17.533Z,53.53
2018-03-26T01:05:45.016Z,53.90
2018-03-26T01:08:13.275Z,53.33
2018-03-26T01:10:40.749Z,59.50
2018-03-26T01:13:08.261Z,63.47
2018-03-26T01:15:35.796Z,56.20
2018-03-26T01:18:03.327Z,64.20
2018-03-26T01:20:31.009Z,60.50
2018-03-26T01:22:58.486Z,60.20
2018-03-26T01:25:26.128Z,61.60
2018-03-26T01:27:53.644Z,65.30
2018-03-26T01:30:21.894Z,60.23
2018-03-26T01:32:49.489Z,58.97
2018-03-26T01:35:17.990Z,61.97
2018-03-26T01:37:45.462Z,61.27
2018-03-26T01:40:13.042Z,62.33
2018-03-26T01:42:40.558Z,63.50
2018-03-26T01:45:08.329Z,63.43
2018-03-26T01:47:36.041Z,67.50
2018-03-26T01:50:04.357Z,64.33
2018-03-26T01:52:31.872Z,67.97
2018-03-26T01:54:59.388Z,66.00
2018-03-26T01:57:26.951Z,68.07
2018-03-26T01:59:55.873Z,68.67
2018-03-26T02:02:23.346Z,71.00
2018-03-26T02:04:51.584Z,74.20
2018-03-26T02:07:19.052Z,73.20
2018-03-26T02:09:46.521Z,82.20
2018-03-26T02:12:14.742Z,75.70
2018-03-26T02:14:42.256Z,76.37
2018-03-26T02:17:10.537Z,81.77
2018-03-26T02:19:39.109Z,89.07
2018-03-26T02:22:07.564Z,91.27
2018-03-26T02:24:35.041Z,87.87
2018-03-26T02:27:02.513Z,95.97
2018-03-26T02:29:30.789Z,106.50
2018-03-26T02:31:59.036Z,96.90
2018-03-26T02:34:26.520Z,98.40
2018-03-26T02:36:54.038Z,99.97
2018-03-26T02:39:21.508Z,99.63
2018-03-26T02:41:49.782Z,102.00
2018-03-26T02:44:18.252Z,95.10
2018-03-26T02:46:46.606Z,100.77
2018-03-26T02:49:14.069Z,103.40
2018-03-26T02:51:43.136Z,104.87
2018-03-26T02:54:10.610Z,99.53
2018-03-26T02:56:38.105Z,106.63
2018-03-26T02:59:06.396Z,98.27
2018-03-26T03:01:33.921Z,98.87
2018-03-26T03:04:01.462Z,100.30
2018-03-26T03:06:28.962Z,101.43
2018-03-26T03:08:57.207Z,92.00
2018-03-26T03:11:24.768Z,98.37
2018-03-26T03:13:52.550Z,94.93
2018-03-26T03:16:20.859Z,95.33
2018-03-26T03:18:48.348Z,93.63
2018-03-26T03:21:15.827Z,94.57
2018-03-26T03:23:44.104Z,99.53
2018-03-26T03:26:11.588Z,98.07
2018-03-26T03:28:39.170Z,104.47
2018-03-26T03:31:06.648Z,93.67
2018-03-26T03:33:34.155Z,97.53
2018-03-26T03:36:01.620Z,91.30
2018-03-26T03:38:29.100Z,95.83
2018-03-26T03:40:56.574Z,91.00
2018-03-26T03:43:24.070Z,91.20
2018-03-26T03:45:52.323Z,88.40
2018-03-26T03:48:19.803Z,83.60
2018-03-26T03:50:48.050Z,87.73
2018-03-26T03:53:15.540Z,89.67
2018-03-26T03:55:43.053Z,89.30
2018-03-26T03:58:10.566Z,87.30
2018-03-26T04:00:38.086Z,87.50
2018-03-26T04:03:05.547Z,77.30
2018-03-26T04:05:33.798Z,84.47
2018-03-26T04:08:01.349Z,85.60
2018-03-26T04:10:28.823Z,71.53
2018-03-26T04:12:56.290Z,76.03
2018-03-26T04:15:24.583Z,72.70
2018-03-26T04:17:52.841Z,80.80
2018-03-26T04:20:21.093Z,75.00
2018-03-26T04:22:48.587Z,76.70
2018-03-26T04:25:16.822Z,73.27
2018-03-26T04:27:44.313Z,76.67
2018-03-26T04:30:12.561Z,78.17
2018-03-26T04:32:40.034Z,71.27
2018-03-26T04:35:08.373Z,71.83
2018-03-26T04:37:35.874Z,68.83
2018-03-26T04:40:04.152Z,70.87
2018-03-26T04:42:32.435Z,77.07
2018-03-26T04:44:59.951Z,79.23
2018-03-26T04:47:27.461Z,63.60
2018-03-26T04:49:54.952Z,72.97
2018-03-26T04:52:22.419Z,74.40
2018-03-26T04:54:49.910Z,73.80
2018-03-26T04:57:18.143Z,77.20
2018-03-26T04:59:45.607Z,78.33
2018-03-26T05:02:13.103Z,75.60
2018-03-26T05:04:40.564Z,75.07
2018-03-26T05:07:08.053Z,83.10
2018-03-26T05:09:35.551Z,65.80
2018-03-26T05:12:03.820Z,77.83
2018-03-26T05:14:32.080Z,77.03
2018-03-26T05:17:01.086Z,72.17
2018-03-26T05:19:29.317Z,82.47
2018-03-26T05:21:56.813Z,85.63
2018-03-26T05:24:24.295Z,77.73
2018-03-26T05:26:51.816Z,73.23
2018-03-26T05:29:19.347Z,79.77
2018-03-26T05:31:46.814Z,79.23
2018-03-26T05:34:14.299Z,82.87
2018-03-26T05:36:41.900Z,87.17
2018-03-26T05:39:09.404Z,76.60
2018-03-26T05:41:36.897Z,79.97
2018-03-26T05:44:04.380Z,83.43
2018-03-26T05:46:31.862Z,89.20
2018-03-26T05:49:00.507Z,85.93
2018-03-26T05:51:28.015Z,87.00
2018-03-26T05:53:56.302Z,79.17
2018-03-26T05:56:23.743Z,75.93
2018-03-26T05:58:51.244Z,83.37
2018-03-26T06:01:18.703Z,85.90
2018-03-26T06:03:46.276Z,69.20
2018-03-26T06:06:13.764Z,81.10
2018-03-26T06:08:42.175Z,73.37
2018-03-26T06:11:09.677Z,73.97
2018-03-26T06:13:37.182Z,78.87
2018-03-26T06:16:05.691Z,81.70
2018-03-26T06:18:33.200Z,78.13
2018-03-26T06:21:00.688Z,75.43
2018-03-26T06:23:28.907Z,81.57
2018-03-26T06:25:56.397Z,85.37
2018-03-26T06:28:24.655Z,83.60
2018-03-26T06:30:52.149Z,80.47
2018-03-26T06:33:19.719Z,88.30
2018-03-26T06:35:47.240Z,82.53
2018-03-26T06:38:30.462Z,72.13
2018-03-26T06:40:57.951Z,81.70
2018-03-26T06:43:25.422Z,76.80
2018-03-26T06:45:52.911Z,83.13
2018-03-26T06:48:20.388Z,86.30
2018-03-26T06:50:48.649Z,83.03
2018-03-26T06:53:16.121Z,80.07
2018-03-26T06:55:44.373Z,79.57
2018-03-26T06:58:11.942Z,77.17
2018-03-26T07:00:40.228Z,78.07
2018-03-26T07:03:08.570Z,75.10
2018-03-26T07:05:36.059Z,83.83
2018-03-26T07:08:04.328Z,74.13
2018-03-26T07:10:32.566Z,82.63
2018-03-26T07:13:00.071Z,81.97
2018-03-26T07:15:28.319Z,75.80
2018-03-26T07:17:55.796Z,84.20
2018-03-26T07:20:24.064Z,78.90
2018-03-26T07:22:51.576Z,81.83
2018-03-26T07:25:19.067Z,82.87
2018-03-26T07:27:46.576Z,79.00
2018-03-26T07:30:14.118Z,85.87
2018-03-26T07:32:41.622Z,85.10
2018-03-26T07:35:09.128Z,82.10
2018-03-26T07:37:36.686Z,84.93
2018-03-26T07:40:04.195Z,81.40
2018-03-26T07:42:31.696Z,84.70
2018-03-26T07:44:59.166Z,79.57
2018-03-26T07:47:26.687Z,81.73
2018-03-26T07:49:54.166Z,78.17
2018-03-26T07:52:21.653Z,80.07
2018-03-26T07:54:49.173Z,78.47
2018-03-26T07:57:17.578Z,86.30
2018-03-26T07:59:45.084Z,89.67
2018-03-26T08:02:12.611Z,85.83
2018-03-26T08:04:40.174Z,81.33
2018-03-26T08:07:07.656Z,84.93
2018-03-26T08:09:35.176Z,82.13
2018-03-26T08:12:02.682Z,76.63
2018-03-26T08:14:31.014Z,74.93
2018-03-26T08:16:58.704Z,75.40
2018-03-26T08:19:26.232Z,81.83
2018-03-26T08:21:53.712Z,67.47
2018-03-26T08:24:21.262Z,63.47
2018-03-26T08:26:48.766Z,67.07
2018-03-26T08:29:16.281Z,65.50
2018-03-26T08:31:43.796Z,60.43
2018-03-26T08:34:11.270Z,60.00
2018-03-26T08:36:38.803Z,62.67
2018-03-26T08:39:06.285Z,57.13
2018-03-26T08:41:33.788Z,51.47
2018-03-26T08:44:02.045Z,50.57
2018-03-26T08:46:29.534Z,47.73
2018-03-26T08:48:57.025Z,49.00
2018-03-26T08:51:24.529Z,44.43
2018-03-26T08:53:52.793Z,43.40
2018-03-26T08:56:20.285Z,43.70
2018-03-26T08:58:47.764Z,37.40
2018-03-26T09:01:15.368Z,36.83
2018-03-26T09:03:43.746Z,32.20
2018-03-26T09:06:11.999Z,30.00
2018-03-26T09:08:39.513Z,29.57
2018-03-26T09:11:07.257Z,31.17
2018-03-26T09:13:34.980Z,33.27
2018-03-26T09:16:03.055Z,32.57
2018-03-26T09:18:30.592Z,33.17
2018-03-26T09:20:58.109Z,32.47
2018-03-26T09:23:25.614Z,30.83
2018-03-26T09:25:53.131Z,36.30
2018-03-26T09:28:20.649Z,35.63
2018-03-26T09:30:48.142Z,31.33
2018-03-26T09:33:15.856Z,31.53
2018-03-26T09:35:43.372Z,32.17
2018-03-26T09:38:10.939Z,29.77
2018-03-26T09:40:38.409Z,27.80
2018-03-26T09:43:06.004Z,26.03
2018-03-26T09:45:34.247Z,25.40
2018-03-26T09:48:01.742Z,26.13
2018-03-26T09:50:30.045Z,23.67
2018-03-26T09:52:57.533Z,33.97
2018-03-26T09:55:25.010Z,28.83
2018-03-26T09:57:53.260Z,29.60
2018-03-26T10:00:26.388Z,26.83
2018-03-26T10:02:53.865Z,24.90
2018-03-26T10:05:21.631Z,21.10
2018-03-26T10:07:49.124Z,22.00
2018-03-26T10:12:51.417Z,18.00
2018-03-26T10:15:18.933Z,15.20
2018-03-26T10:17:46.588Z,15.43
2018-03-26T10:20:14.177Z,16.23
2018-03-26T10:22:41.651Z,18.27
2018-03-26T10:25:09.185Z,16.73
2018-03-26T10:27:36.763Z,18.40
2018-03-26T10:30:04.274Z,18.20
2018-03-26T10:32:31.855Z,15.63
2018-03-26T10:34:59.365Z,13.23
2018-03-26T10:37:27.707Z,15.93
2018-03-26T10:39:55.307Z,15.00
2018-03-26T10:42:22.811Z,15.87
2018-03-26T10:44:50.341Z,12.07
2018-03-26T10:47:17.922Z,11.93
2018-03-26T10:49:45.532Z,10.13
2018-03-26T10:52:13.808Z,9.33
2018-03-26T10:54:42.063Z,9.17
2018-03-26T10:57:09.588Z,9.60
2018-03-26T10:59:37.139Z,11.20
2018-03-26T11:02:04.690Z,6.20
2018-03-26T11:04:32.166Z,7.67
2018-03-26T11:06:59.722Z,7.43
2018-03-26T11:09:27.210Z,7.67
2018-03-26T11:11:54.864Z,9.97
2018-03-26T11:14:23.121Z,6.95
2018-03-26T11:16:50.606Z,7.27
2018-03-26T11:19:18.870Z,9.90
2018-03-26T11:21:47.134Z,9.07
2018-03-26T11:24:16.111Z,11.33
2018-03-26T11:26:43.671Z,6.83
2018-03-26T11:29:11.243Z,6.83
2018-03-26T11:31:39.508Z,6.00
2018-03-26T11:34:07.014Z,7.00
2018-03-26T11:36:34.710Z,5.27
2018-03-26T11:39:02.253Z,7.30
2018-03-26T11:41:29.804Z,9.73
2018-03-26T11:46:31.312Z,8.13
2018-03-26T11:48:58.808Z,9.47
2018-03-26T11:51:26.338Z,6.77
2018-03-26T11:53:54.028Z,5.67
2018-03-26T11:56:21.614Z,6.67
2018-03-26T11:58:49.107Z,5.20
2018-03-26T12:01:16.822Z,7.93
2018-03-26T12:03:44.433Z,4.70
2018-03-26T12:06:11.930Z,7.07
2018-03-26T12:08:39.427Z,3.63
2018-03-26T12:11:06.906Z,4.53
2018-03-26T12:13:34.385Z,7.50
2018-03-26T12:16:01.906Z,6.40
2018-03-26T12:18:29.573Z,6.40
2018-03-26T12:20:59.224Z,7.07
2018-03-26T12:23:39.169Z,5.67
2018-03-26T12:26:07.002Z,6.67
2018-03-26T12:28:47.334Z,5.33
2018-03-26T12:31:14.917Z,13.10
2018-03-26T12:33:55.365Z,5.90
2018-03-26T12:36:22.935Z,3.93
2018-03-26T12:38:51.196Z,6.20
2018-03-26T12:41:18.689Z,9.27
2018-03-26T12:43:46.312Z,6.90
2018-03-26T12:46:25.695Z,4.20
2018-03-26T12:48:53.233Z,6.20
2018-03-26T12:51:32.822Z,3.73
2018-03-26T12:54:00.446Z,5.80
2018-03-26T12:56:28.051Z,5.07
2018-03-26T12:58:55.549Z,3.27
2018-03-26T13:01:34.957Z,3.70
2018-03-26T13:04:02.435Z,5.20
2018-03-26T13:06:30.792Z,4.40
2018-03-26T13:08:58.254Z,8.27
2018-03-26T13:11:26.548Z,4.40
2018-03-26T13:13:54.057Z,5.67
2018-03-26T13:16:21.536Z,5.90
2018-03-26T13:18:49.769Z,9.13
2018-03-26T13:21:17.311Z,7.40
2018-03-26T13:23:44.787Z,7.87
2018-03-26T13:26:12.248Z,8.10
2018-03-26T13:28:39.764Z,9.97
2018-03-26T13:31:07.233Z,8.10
2018-03-26T13:33:34.726Z,8.27
2018-03-26T13:36:02.959Z,13.00
2018-03-26T13:38:30.452Z,8.37
2018-03-26T13:40:59.446Z,10.03
2018-03-26T13:43:26.927Z,6.63
2018-03-26T13:45:55.173Z,6.63
2018-03-26T13:48:22.739Z,6.20
2018-03-26T13:50:50.214Z,10.00
2018-03-26T13:53:18.486Z,10.67
2018-03-26T13:55:46.087Z,9.00
2018-03-26T13:58:13.556Z,9.53
2018-03-26T14:00:41.024Z,7.17
2018-03-26T14:03:08.555Z,9.60
2018-03-26T14:05:36.039Z,6.30
2018-03-26T14:08:03.519Z,8.17
2018-03-26T14:10:42.849Z,10.23
2018-03-26T14:13:22.236Z,8.30
2018-03-26T14:16:01.634Z,7.73
2018-03-26T14:18:29.949Z,9.57
2018-03-26T14:20:58.147Z,7.57
2018-03-26T14:23:25.607Z,5.33
2018-03-26T14:25:53.093Z,6.73
2018-03-26T14:28:21.352Z,6.70
2018-03-26T14:30:50.409Z,5.03
2018-03-26T14:33:17.894Z,6.23
2018-03-26T14:35:45.457Z,7.73
2018-03-26T14:38:12.941Z,10.50
2018-03-26T14:40:41.200Z,5.57
2018-03-26T14:43:08.728Z,6.00
2018-03-26T14:45:36.203Z,6.03
2018-03-26T14:48:03.809Z,8.33
2018-03-26T14:50:31.279Z,5.60
2018-03-26T14:52:58.753Z,7.07
2018-03-26T14:55:26.271Z,6.73
2018-03-26T14:57:53.754Z,4.43
2018-03-26T15:00:21.232Z,5.33
2018-03-26T15:02:48.768Z,3.83
2018-03-26T15:05:16.217Z,7.93
2018-03-26T15:07:43.699Z,2.97
2018-03-26T15:10:11.166Z,4.63
2018-03-26T15:12:40.152Z,5.40
2018-03-26T15:15:07.627Z,5.47
2018-03-26T15:17:35.883Z,7.20
2018-03-26T15:20:04.248Z,6.40
2018-03-26T15:22:31.750Z,4.43
2018-03-26T15:24:59.999Z,3.27
2018-03-26T15:27:28.291Z,6.37
2018-03-26T15:29:55.722Z,5.23
2018-03-26T15:32:23.251Z,4.37
2018-03-26T15:34:50.710Z,5.57
2018-03-26T15:37:18.199Z,6.40
2018-03-26T15:39:46.467Z,4.50
2018-03-26T15:42:15.454Z,4.40
2018-03-26T15:44:42.935Z,5.23
2018-03-26T15:47:10.381Z,6.33
2018-03-26T15:49:38.659Z,4.70
2018-03-26T15:52:07.505Z,5.43
2018-03-26T15:54:34.980Z,6.33
2018-03-26T15:57:02.466Z,5.27
2018-03-26T15:59:30.724Z,7.10
2018-03-26T16:01:57.853Z,6.17
2018-03-26T16:04:25.331Z,5.33
2018-03-26T16:06:53.597Z,4.67
2018-03-26T16:09:21.098Z,6.30
2018-03-26T16:11:48.576Z,6.30
2018-03-26T16:14:16.059Z,4.40
2018-03-26T16:16:43.548Z,3.17
2018-03-26T16:19:11.854Z,4.90
2018-03-26T16:21:39.381Z,3.63
2018-03-26T16:24:07.621Z,6.47
2018-03-26T16:26:35.113Z,6.70
2018-03-26T16:29:03.353Z,4.90
2018-03-26T16:31:30.830Z,6.17
2018-03-26T16:33:59.071Z,5.47
2018-03-26T16:36:26.595Z,8.43
2018-03-26T16:38:54.063Z,7.80
2018-03-26T16:41:33.562Z,6.40
2018-03-26T16:44:01.206Z,7.00
2018-03-26T16:46:28.703Z,6.73
2018-03-26T16:48:56.204Z,8.00
2018-03-26T16:51:23.813Z,5.87
2018-03-26T16:53:51.298Z,6.87
2018-03-26T16:56:18.782Z,5.93
2018-03-26T16:58:46.291Z,13.27
2018-03-26T17:01:13.809Z,7.63
2018-03-26T17:03:42.109Z,6.03
2018-03-26T17:06:09.590Z,7.77
2018-03-26T17:08:37.073Z,8.33
2018-03-26T17:11:04.588Z,7.17
2018-03-26T17:13:32.058Z,8.07
2018-03-26T17:15:59.570Z,8.33
2018-03-26T17:18:27.872Z,6.17
2018-03-26T17:20:55.346Z,5.73
2018-03-26T17:23:22.829Z,10.30
2018-03-26T17:25:50.291Z,6.90
2018-03-26T17:28:17.844Z,5.40
2018-03-26T17:30:45.341Z,6.20
2018-03-26T17:33:12.847Z,9.10
2018-03-26T17:35:41.130Z,8.33
2018-03-26T17:38:08.614Z,6.70
2018-03-26T17:40:36.914Z,8.67
2018-03-26T17:43:04.392Z,6.90
2018-03-26T17:45:31.878Z,7.30
2018-03-26T17:47:59.387Z,9.07
2018-03-26T17:50:26.944Z,5.90
2018-03-26T17:52:55.152Z,8.90
2018-03-26T17:55:22.730Z,7.87
2018-03-26T17:57:50.999Z,7.87
2018-03-26T18:00:18.491Z,8.47
2018-03-26T18:02:46.070Z,9.50
2018-03-26T18:05:13.564Z,12.97
2018-03-26T18:07:42.559Z,7.70
2018-03-26T18:10:10.068Z,6.97
2018-03-26T18:12:37.543Z,9.27
2018-03-26T18:15:05.020Z,7.87
2018-03-26T18:17:33.771Z,7.43
2018-03-26T18:20:01.272Z,6.37
2018-03-26T18:22:28.770Z,7.33
2018-03-26T18:24:56.287Z,11.33
2018-03-26T18:27:23.763Z,6.07
2018-03-26T18:29:52.006Z,9.40
2018-03-26T18:32:19.490Z,9.80
2018-03-26T18:34:47.763Z,10.57
2018-03-26T18:37:16.036Z,10.07
2018-03-26T18:39:44.282Z,11.27
2018-03-26T18:42:11.765Z,14.63
2018-03-26T18:44:40.022Z,11.60
2018-03-26T18:47:07.530Z,12.33
2018-03-26T18:49:35.042Z,10.90
2018-03-26T18:52:02.517Z,11.43
2018-03-26T18:54:30.780Z,7.30
2018-03-26T18:56:59.092Z,8.77
2018-03-26T18:59:26.590Z,10.07
2018-03-26T19:01:54.096Z,9.33
2018-03-26T19:04:21.586Z,9.23
2018-03-26T19:06:49.112Z,11.37
2018-03-26T19:09:16.595Z,11.97
2018-03-26T19:11:44.094Z,10.33
2018-03-26T19:14:12.347Z,10.57
2018-03-26T19:16:39.862Z,11.50
2018-03-26T19:19:07.325Z,10.93
2018-03-26T19:21:34.826Z,8.23
2018-03-26T19:24:02.306Z,9.13
2018-03-26T19:26:29.833Z,8.60
2018-03-26T19:28:57.309Z,8.03
2018-03-26T19:31:25.918Z,13.03
2018-03-26T19:33:53.418Z,10.17
2018-03-26T19:36:20.932Z,10.57
2018-03-26T19:38:48.395Z,12.27
2018-03-26T19:41:15.887Z,9.57
2018-03-26T19:43:43.396Z,13.13
2018-03-26T19:46:10.879Z,8.10
2018-03-26T19:48:38.401Z,9.93
2018-03-26T19:51:05.876Z,9.63
2018-03-26T19:53:33.354Z,14.23
2018-03-26T19:56:00.872Z,12.53
2018-03-26T19:58:28.387Z,10.93
2018-03-26T20:00:55.851Z,11.60
2018-03-26T20:03:23.377Z,14.17
2018-03-26T20:05:50.871Z,14.30
2018-03-26T20:08:18.623Z,11.27
2018-03-26T20:10:46.889Z,10.93
2018-03-26T20:13:14.478Z,9.20
2018-03-26T20:15:42.711Z,9.53
2018-03-26T20:18:10.203Z,11.43
2018-03-26T20:20:38.473Z,11.20
2018-03-26T20:23:06.748Z,14.63
2018-03-26T20:25:34.989Z,11.27
2018-03-26T20:28:02.528Z,12.03
2018-03-26T20:30:30.019Z,11.47
2018-03-26T20:32:57.616Z,9.63
2018-03-26T20:35:25.136Z,9.97
2018-03-26T20:37:52.607Z,11.70
2018-03-26T20:40:20.915Z,12.50
2018-03-26T20:42:48.396Z,12.70
2018-03-26T20:45:15.888Z,14.83
2018-03-26T20:47:43.360Z,11.60
2018-03-26T20:50:11.618Z,12.17
2018-03-26T20:52:39.108Z,13.90
2018-03-26T20:55:06.617Z,12.97
2018-03-26T20:57:34.133Z,10.23
2018-03-26T21:00:01.632Z,13.47
2018-03-26T21:02:29.598Z,11.83
2018-03-26T21:04:57.089Z,14.03
2018-03-26T21:07:24.816Z,13.20
2018-03-26T21:09:52.278Z,13.03
2018-03-26T21:12:19.782Z,12.23
2018-03-26T21:14:48.151Z,11.53
2018-03-26T21:17:15.666Z,12.10
2018-03-26T21:19:43.208Z,13.17
2018-03-26T21:22:10.724Z,13.67
2018-03-26T21:24:38.277Z,12.87
2018-03-26T21:27:05.795Z,16.80
2018-03-26T21:29:33.410Z,14.77
2018-03-26T21:32:00.925Z,16.57
2018-03-26T21:34:28.732Z,14.13
2018-03-26T21:36:56.417Z,14.73
2018-03-26T21:39:23.909Z,12.63
2018-03-26T21:41:52.147Z,14.33
2018-03-26T21:44:20.351Z,14.37
2018-03-26T21:46:48.748Z,13.73
2018-03-26T21:49:16.241Z,15.00
2018-03-26T21:51:43.719Z,15.93
2018-03-26T21:54:11.212Z,15.33
2018-03-26T21:56:38.684Z,13.80
2018-03-26T21:59:06.205Z,17.27
2018-03-26T22:01:34.454Z,12.80
2018-03-26T22:04:01.964Z,15.80
2018-03-26T22:06:29.455Z,16.90
2018-03-26T22:08:57.002Z,15.30
2018-03-26T22:11:24.695Z,14.80
2018-03-26T22:13:52.162Z,12.53
2018-03-26T22:16:19.669Z,15.13
2018-03-26T22:18:47.158Z,13.53
2018-03-26T22:21:14.677Z,17.50
2018-03-26T22:23:42.249Z,18.43
2018-03-26T22:26:09.754Z,17.30
2018-03-26T22:28:37.988Z,16.20
2018-03-26T22:31:05.498Z,15.00
2018-03-26T22:33:33.001Z,14.40
2018-03-26T22:36:00.502Z,20.37
2018-03-26T22:38:28.735Z,19.03
2018-03-26T22:40:56.209Z,17.37
2018-03-26T22:43:24.529Z,19.70
2018-03-26T22:45:52.019Z,18.23
2018-03-26T22:48:19.493Z,19.57
2018-03-26T22:50:46.980Z,17.10
2018-03-26T22:53:15.219Z,18.13
2018-03-26T22:55:42.710Z,17.60
2018-03-26T22:58:10.945Z,17.20
2018-03-26T23:00:38.475Z,19.50
2018-03-26T23:03:05.930Z,22.37
2018-03-26T23:05:33.423Z,19.50
2018-03-26T23:08:00.922Z,21.30
2018-03-26T23:10:28.395Z,21.47
2018-03-26T23:12:55.887Z,22.47
2018-03-26T23:15:23.406Z,20.40
2018-03-26T23:17:51.002Z,25.60
2018-03-26T23:20:18.496Z,21.90
2018-03-26T23:22:48.741Z,18.50
2018-03-26T23:25:16.202Z,20.67
2018-03-26T23:27:43.674Z,25.30
2018-03-26T23:30:11.159Z,27.17
2018-03-26T23:32:38.649Z,31.60
2018-03-26T23:35:06.118Z,24.43
2018-03-26T23:37:33.594Z,23.00
2018-03-26T23:40:01.066Z,24.97
2018-03-26T23:42:28.540Z,24.00
2018-03-26T23:44:56.021Z,32.77
2018-03-26T23:47:24.302Z,25.67
2018-03-26T23:49:51.774Z,25.37
2018-03-26T23:52:19.247Z,28.80
2018-03-26T23:54:46.743Z,35.73
2018-03-26T23:57:14.235Z,36.10
2018-03-26T23:59:41.728Z,38.93
